Time;durP1;ratioP1;P1;durP2;ratioP2;P2;SDS_P1;SDS_P2;PMS_P1;PMS_P2;Temp;Humidity;BMP_temperature;BMP_pressure;BME280_temperature;BME280_humidity;BME280_pressure;Samples;Min_cycle;Max_cycle;Signal;HPM_P1;HPM_P2
2023/02/14 00:00:26;;;;;;;56.83;31.43;;;;;;;1.25;80.33;102171.91;1478948;88;21702;-84
2023/02/14 00:02:52;;;;;;;51.03;30.77;;;;;;;1.22;80.29;102172.00;1486999;88;21841;-84
2023/02/14 00:05:18;;;;;;;51.50;30.03;;;;;;;1.19;80.43;102165.57;1476046;88;21561;-84
2023/02/14 00:07:45;;;;;;;57.33;33.70;;;;;;;1.12;81.48;102168.81;1474321;88;22151;-84
2023/02/14 00:10:11;;;;;;;62.60;31.50;;;;;;;1.10;81.42;102172.36;1482962;88;21532;-84
2023/02/14 00:12:37;;;;;;;55.37;30.40;;;;;;;1.09;80.97;102161.51;1481646;88;21671;-82
2023/02/14 00:15:23;;;;;;;49.93;29.17;;;;;;;1.10;80.31;102155.41;1478316;88;21850;-82
2023/02/14 00:17:53;;;;;;;53.57;31.37;;;;;;;1.09;81.37;102167.60;1484026;88;21672;-84
2023/02/14 00:20:22;;;;;;;52.80;31.40;;;;;;;1.10;81.19;102150.20;1477794;88;21630;-83
2023/02/14 00:22:49;;;;;;;48.33;29.33;;;;;;;1.15;80.96;102160.47;1476813;88;21633;-81
2023/02/14 00:25:17;;;;;;;59.30;30.77;;;;;;;1.19;80.57;102155.14;1482549;88;21645;-82
2023/02/14 00:27:43;;;;;;;57.37;31.60;;;;;;;1.21;80.37;102151.16;1482330;88;22477;-82
2023/02/14 00:30:11;;;;;;;53.27;32.10;;;;;;;1.24;80.01;102157.17;1483417;88;21643;-81
2023/02/14 00:32:40;;;;;;;64.07;34.30;;;;;;;1.26;79.70;102156.65;1479514;88;21663;-82
2023/02/14 00:35:08;;;;;;;62.53;35.83;;;;;;;1.28;79.43;102150.95;1482003;88;22388;-82
2023/02/14 00:37:34;;;;;;;61.27;34.40;;;;;;;1.26;79.27;102143.61;1468909;88;21599;-82
2023/02/14 00:40:00;;;;;;;57.60;32.80;;;;;;;1.26;79.29;102144.91;1486362;88;22589;-83
2023/02/14 00:42:26;;;;;;;59.70;34.83;;;;;;;1.26;79.38;102137.09;1483877;88;21546;-83
2023/02/14 00:44:52;;;;;;;72.70;39.03;;;;;;;1.27;79.33;102128.84;1486978;88;21771;-80
2023/02/14 00:47:19;;;;;;;73.27;37.33;;;;;;;1.30;79.38;102124.38;1485574;88;22621;-83
2023/02/14 00:49:45;;;;;;;64.90;34.07;;;;;;;1.32;79.28;102117.36;1477859;88;22820;-82
2023/02/14 00:52:13;;;;;;;54.07;30.93;;;;;;;1.32;79.22;102109.96;1477923;88;21545;-81
2023/02/14 00:54:39;;;;;;;54.27;31.10;;;;;;;1.31;79.10;102110.88;1480051;88;21621;-84
2023/02/14 00:57:05;;;;;;;66.77;37.07;;;;;;;1.27;79.05;102093.16;1476216;88;21643;-83
2023/02/14 00:59:32;;;;;;;66.43;38.07;;;;;;;1.26;79.30;102093.20;1476703;88;21571;-85
2023/02/14 01:01:58;;;;;;;57.97;32.67;;;;;;;1.27;79.17;102089.25;1487853;88;21615;-85
2023/02/14 01:04:24;;;;;;;65.53;36.10;;;;;;;1.28;79.43;102097.47;1484470;88;21563;-84
2023/02/14 01:06:50;;;;;;;64.50;35.07;;;;;;;1.31;79.26;102097.83;1480979;88;21645;-84
2023/02/14 01:09:16;;;;;;;61.70;34.63;;;;;;;1.32;79.07;102093.00;1477792;88;21656;-86
2023/02/14 01:11:43;;;;;;;62.87;33.17;;;;;;;1.33;78.96;102087.75;1482741;88;21639;-84
2023/02/14 01:14:09;;;;;;;55.80;33.97;;;;;;;1.35;78.90;102084.66;1482996;88;21701;-82
2023/02/14 01:16:37;;;;;;;62.70;34.10;;;;;;;1.32;78.86;102080.84;1480233;88;21702;-82
2023/02/14 01:19:03;;;;;;;54.77;32.17;;;;;;;1.31;78.77;102080.42;1455383;88;22626;-80
2023/02/14 01:21:32;;;;;;;59.67;33.57;;;;;;;1.29;78.89;102079.60;1481954;88;22528;-82
2023/02/14 01:24:03;;;;;;;55.47;32.00;;;;;;;1.28;78.96;102077.06;1477036;88;21540;-81
2023/02/14 01:26:30;;;;;;;52.15;31.07;;;;;;;1.28;79.07;102081.82;1474117;88;21672;-83
2023/02/14 01:28:57;;;;;;;49.70;30.23;;;;;;;1.30;78.94;102078.72;1481238;88;22327;-83
2023/02/14 01:31:30;;;;;;;67.33;34.70;;;;;;;1.32;78.80;102084.75;1472893;88;22178;-82
2023/02/14 01:33:57;;;;;;;60.03;33.87;;;;;;;1.33;78.80;102073.86;1480591;88;22419;-82
2023/02/14 01:36:30;;;;;;;53.60;31.50;;;;;;;1.32;78.66;102070.41;1487061;88;21554;-82
2023/02/14 01:39:01;;;;;;;57.07;33.33;;;;;;;1.34;78.57;102067.27;1480759;88;21910;-82
2023/02/14 01:41:32;;;;;;;55.28;33.73;;;;;;;1.33;78.64;102065.58;1481579;88;22698;-83
2023/02/14 01:44:16;;;;;;;57.58;33.40;;;;;;;1.32;79.19;102069.53;1480880;88;21368;-80
2023/02/14 01:46:44;;;;;;;54.90;32.53;;;;;;;1.31;78.83;102068.67;1474319;88;21654;-82
2023/02/14 01:49:19;;;;;;;53.33;31.23;;;;;;;1.36;78.94;102060.72;1476575;88;21576;-82
2023/02/14 01:51:53;;;;;;;61.40;33.13;;;;;;;1.40;78.87;102064.08;1485679;88;21635;-83
2023/02/14 01:54:24;;;;;;;59.27;32.23;;;;;;;1.43;78.73;102061.37;1480242;88;22485;-82
2023/02/14 01:56:58;;;;;;;60.17;34.30;;;;;;;1.41;79.24;102062.73;1482449;88;21625;-82
2023/02/14 01:59:29;;;;;;;56.63;31.87;;;;;;;1.37;79.09;102058.96;1483415;88;22286;-81
2023/02/14 02:01:56;;;;;;;59.33;32.13;;;;;;;1.34;79.36;102059.45;1479502;88;21646;-82
2023/02/14 02:04:27;;;;;;;58.40;32.60;;;;;;;1.30;79.64;102064.83;1476468;88;22440;-81
2023/02/14 02:07:04;;;;;;;57.17;31.67;;;;;;;1.26;79.31;102061.44;1487114;88;22723;-86
2023/02/14 02:09:52;;;;;;;58.03;34.10;;;;;;;1.23;79.98;102056.32;1482871;88;21732;-84
2023/02/14 02:12:18;;;;;;;64.97;33.60;;;;;;;1.21;80.25;102056.84;1478297;88;21694;-83
2023/02/14 02:14:47;;;;;;;55.77;32.67;;;;;;;1.23;80.02;102047.19;1483096;88;21651;-84
2023/02/14 02:17:49;;;;;;;65.17;35.60;;;;;;;1.26;79.78;102051.01;1487065;88;21509;-80
2023/02/14 02:20:41;;;;;;;65.00;37.00;;;;;;;1.28;79.66;102046.61;1480001;88;21664;-81
2023/02/14 02:23:27;;;;;;;75.67;39.53;;;;;;;1.31;79.62;102041.28;1481659;88;21551;-81
2023/02/14 02:26:22;;;;;;;73.40;40.10;;;;;;;1.31;80.40;102059.55;1475739;88;21676;-83
2023/02/14 02:29:09;;;;;;;74.90;40.10;;;;;;;1.28;80.14;102054.43;1480436;88;21470;-83
2023/02/14 02:32:13;;;;;;;78.00;40.67;;;;;;;1.27;80.20;102052.73;1477570;88;21846;-83
2023/02/14 02:35:21;;;;;;;59.47;34.93;;;;;;;1.26;80.24;102056.22;1484082;88;21659;-84
2023/02/14 02:38:17;;;;;;;65.00;37.43;;;;;;;1.27;80.02;102057.95;1478250;88;21604;-83
2023/02/14 02:41:27;;;;;;;72.47;40.93;;;;;;;1.32;80.04;102052.14;1485808;88;21634;-81
2023/02/14 02:44:05;;;;;;;75.85;42.93;;;;;;;1.32;80.34;102056.48;1482668;88;21603;-81
2023/02/14 02:46:46;;;;;;;69.37;39.03;;;;;;;1.31;80.49;102056.94;1477089;88;21479;-81
2023/02/14 02:53:09;;;;;;;66.53;36.67;;;;;;;1.23;80.42;102057.63;1480239;88;21494;-82
2023/02/14 02:58:54;;;;;;;64.13;35.73;;;;;;;1.15;80.75;102062.22;1485443;88;22693;-81
2023/02/14 03:01:25;;;;;;;72.47;39.37;;;;;;;1.13;80.85;102058.38;1484867;88;21659;-81
2023/02/14 03:06:46;;;;;;;64.40;36.57;;;;;;;1.11;81.41;102056.25;1483870;88;22228;-81
2023/02/14 03:09:24;;;;;;;71.73;38.90;;;;;;;1.09;81.04;102059.80;1473613;88;21829;-83
2023/02/14 03:12:16;;;;;;;105.10;60.93;;;;;;;1.11;81.00;102060.63;1477108;88;21874;-82
2023/02/14 03:15:12;;;;;;;116.57;65.73;;;;;;;1.11;81.58;102064.08;1475589;88;21539;-79
2023/02/14 03:21:23;;;;;;;95.57;50.37;;;;;;;1.10;82.18;102052.41;1477028;88;21658;-80
2023/02/14 03:24:12;;;;;;;81.67;46.50;;;;;;;1.13;81.25;102052.31;1478060;88;21497;-83
2023/02/14 03:26:59;;;;;;;80.60;44.50;;;;;;;1.15;81.01;102046.57;1488224;88;22581;-83
2023/02/14 03:29:30;;;;;;;77.83;43.37;;;;;;;1.17;81.63;102056.52;1479205;88;21862;-84
2023/02/14 03:32:05;;;;;;;74.60;43.97;;;;;;;1.11;82.41;102057.56;1484822;88;21678;-84
2023/02/14 03:34:43;;;;;;;70.17;41.20;;;;;;;1.10;81.57;102052.41;1487872;88;21612;-84
2023/02/14 03:37:16;;;;;;;67.00;40.03;;;;;;;1.11;81.40;102056.70;1480012;88;21708;-82
2023/02/14 03:40:42;;;;;;;67.67;39.90;;;;;;;1.12;81.35;102049.28;1483575;88;21627;-84
2023/02/14 03:43:16;;;;;;;66.83;38.87;;;;;;;1.16;81.11;102052.21;1491930;88;21838;-85
2023/02/14 03:46:12;;;;;;;68.90;39.47;;;;;;;1.19;81.01;102048.20;1478071;88;21688;-84
2023/02/14 03:48:41;;;;;;;75.10;41.43;;;;;;;1.16;80.96;102050.91;1481305;88;22545;-84
2023/02/14 03:51:11;;;;;;;58.57;35.20;;;;;;;1.16;81.06;102044.39;1488132;88;21593;-84
2023/02/14 03:53:42;;;;;;;62.80;35.77;;;;;;;1.19;80.92;102045.59;1456369;88;21628;-83
2023/02/14 03:56:28;;;;;;;;;;;;;;;1.24;81.07;102050.68;1479582;88;21569;-84
2023/02/14 03:59:04;;;;;;;66.43;35.13;;;;;;;1.27;81.06;102054.04;1485265;88;20283;-84
2023/02/14 04:01:38;;;;;;;69.40;35.33;;;;;;;1.26;81.51;102048.86;1474413;88;21788;-84
2023/02/14 04:04:06;;;;;;;68.97;37.67;;;;;;;1.27;80.81;102057.10;1472365;88;21738;-84
2023/02/14 04:06:33;;;;;;;65.33;37.00;;;;;;;1.26;80.72;102052.77;1477543;88;21835;-84
2023/02/14 04:09:01;;;;;;;73.93;38.07;;;;;;;1.25;80.87;102058.44;1484383;88;21829;-83
2023/02/14 04:11:27;;;;;;;69.13;40.20;;;;;;;1.26;80.40;102060.13;1478110;88;22647;-83
2023/02/14 04:13:53;;;;;;;65.53;37.83;;;;;;;1.26;80.47;102058.83;1482726;88;21529;-83
2023/02/14 04:16:19;;;;;;;66.53;38.03;;;;;;;1.26;80.40;102060.59;1479242;88;21795;-83
2023/02/14 04:21:32;;;;;;;64.57;36.10;;;;;;;1.25;80.77;102057.13;1485323;88;21653;-83
2023/02/14 04:23:58;;;;;;;54.00;31.33;;;;;;;1.23;81.70;102058.93;1481988;88;21531;-83
2023/02/14 04:26:24;;;;;;;68.50;39.23;;;;;;;1.24;81.43;102063.72;1479866;88;21495;-83
2023/02/14 04:28:50;;;;;;;68.63;36.77;;;;;;;1.19;82.42;102066.91;1483806;88;22428;-83
2023/02/14 04:31:16;;;;;;;73.73;42.77;;;;;;;1.21;81.59;102058.15;1477906;88;21553;-83
2023/02/14 04:33:44;;;;;;;69.83;39.13;;;;;;;1.19;81.50;102059.09;1488233;88;21735;-82
2023/02/14 04:36:11;;;;;;;74.17;40.17;;;;;;;1.20;81.75;102060.79;1480584;88;21594;-84
2023/02/14 04:38:37;;;;;;;88.03;44.97;;;;;;;1.20;81.50;102060.33;1473169;88;21570;-84
2023/02/14 04:41:03;;;;;;;93.30;49.83;;;;;;;1.13;82.62;102051.85;1475648;88;22440;-84
2023/02/14 04:43:30;;;;;;;89.40;49.23;;;;;;;1.13;82.62;102051.85;1478643;88;21885;-85
2023/02/14 04:45:56;;;;;;;118.73;63.20;;;;;;;1.10;83.28;102053.70;1479022;88;21552;-84
2023/02/14 04:48:22;;;;;;;118.53;67.00;;;;;;;1.12;82.44;102051.89;1476162;88;21630;-82
2023/02/14 04:50:53;;;;;;;125.83;68.73;;;;;;;1.17;82.13;102055.67;1484253;88;22536;-83
2023/02/14 04:53:21;;;;;;;142.60;75.35;;;;;;;1.19;81.98;102061.24;1489809;88;21546;-83
2023/02/14 04:55:50;;;;;;;146.60;78.93;;;;;;;1.21;81.70;102052.93;1484352;88;21676;-80
2023/02/14 04:58:17;;;;;;;149.23;76.27;;;;;;;1.24;81.63;102057.20;1477768;88;21629;-83
2023/02/14 05:00:43;;;;;;;121.97;63.47;;;;;;;1.23;81.87;102064.14;1477047;88;21874;-81
2023/02/14 05:03:09;;;;;;;117.87;62.77;;;;;;;1.20;82.26;102071.22;1477065;88;21600;-82
2023/02/14 05:05:36;;;;;;;112.93;58.57;;;;;;;1.20;82.02;102061.63;1479949;88;21567;-83
2023/02/14 05:08:02;;;;;;;113.67;60.47;;;;;;;1.23;81.80;102064.14;1487412;88;21494;-83
2023/02/14 05:10:28;;;;;;;111.97;59.20;;;;;;;1.27;81.94;102067.53;1477306;88;21566;-84
2023/02/14 05:12:54;;;;;;;123.20;64.00;;;;;;;1.28;81.73;102061.41;1481483;88;21857;-82
2023/02/14 05:15:21;;;;;;;120.03;64.43;;;;;;;1.28;81.63;102064.86;1486405;88;21495;-81
2023/02/14 05:17:47;;;;;;;110.27;57.73;;;;;;;1.29;81.47;102063.95;1479549;88;21410;-83
2023/02/14 05:20:13;;;;;;;111.10;58.50;;;;;;;1.26;81.57;102063.20;1480129;88;21648;-83
2023/02/14 05:22:40;;;;;;;108.17;56.87;;;;;;;1.24;81.43;102055.90;1472707;88;21644;-85
2023/02/14 05:25:07;;;;;;;116.37;58.83;;;;;;;1.23;81.60;102061.54;1472507;88;22764;-84
2023/02/14 05:27:33;;;;;;;101.70;54.17;;;;;;;1.25;81.51;102064.11;1477718;88;21743;-84
2023/02/14 05:29:59;;;;;;;98.67;52.73;;;;;;;1.28;81.50;102062.25;1473455;88;21769;-81
2023/02/14 05:32:26;;;;;;;90.67;48.87;;;;;;;1.33;81.50;102068.19;1473152;88;21865;-84
2023/02/14 05:34:52;;;;;;;90.57;48.33;;;;;;;1.35;81.26;102055.96;1472212;88;21786;-83
2023/02/14 05:37:19;;;;;;;84.03;47.37;;;;;;;1.39;81.30;102059.77;1473400;88;21658;-85
2023/02/14 05:39:45;;;;;;;132.57;68.13;;;;;;;1.40;81.06;102067.53;1480490;88;21648;-86
2023/02/14 05:42:11;;;;;;;118.33;60.23;;;;;;;1.41;81.00;102064.47;1469624;88;21671;-84
2023/02/14 05:44:37;;;;;;;112.93;61.63;;;;;;;1.39;80.83;102068.91;1472202;88;22520;-84
2023/02/14 05:47:03;;;;;;;113.20;60.23;;;;;;;1.34;80.96;102062.52;1469143;88;21788;-84
2023/02/14 05:49:30;;;;;;;118.13;64.37;;;;;;;1.31;80.89;102067.37;1472751;88;22486;-82
2023/02/14 05:51:56;;;;;;;97.50;51.53;;;;;;;1.31;81.06;102060.85;1467592;88;21667;-84
2023/02/14 05:54:22;;;;;;;105.87;53.30;;;;;;;1.32;81.19;102065.61;1478591;88;21599;-85
2023/02/14 05:56:48;;;;;;;95.80;53.90;;;;;;;1.32;81.29;102063.88;1474593;88;22246;-85
2023/02/14 05:59:14;;;;;;;97.17;54.80;;;;;;;1.37;81.28;102062.88;1475186;88;22373;-83
2023/02/14 06:01:40;;;;;;;99.10;52.57;;;;;;;1.39;81.15;102063.69;1474251;88;21773;-84
2023/02/14 06:04:07;;;;;;;91.80;51.60;;;;;;;1.38;81.74;102067.17;1483196;88;21684;-80
2023/02/14 06:06:33;;;;;;;79.33;45.70;;;;;;;1.37;81.30;102062.88;1479317;88;21771;-79
2023/02/14 06:08:59;;;;;;;118.83;51.20;;;;;;;1.38;81.16;102067.17;1472551;88;21740;-82
2023/02/14 06:11:25;;;;;;;81.43;42.50;;;;;;;1.40;81.38;102061.47;1468891;88;21508;-83
2023/02/14 06:13:52;;;;;;;100.60;49.83;;;;;;;1.41;81.44;102059.25;1476367;88;21547;-81
2023/02/14 06:16:18;;;;;;;83.27;44.50;;;;;;;1.41;81.72;102067.08;1469297;88;22693;-81
2023/02/14 06:18:44;;;;;;;78.83;43.37;;;;;;;1.41;82.06;102064.47;1479709;88;21585;-81
2023/02/14 06:21:10;;;;;;;116.73;43.77;;;;;;;1.42;81.21;102064.44;1472522;88;21651;-82
2023/02/14 06:23:37;;;;;;;82.13;40.43;;;;;;;1.42;81.23;102062.28;1478564;88;21747;-81
2023/02/14 06:26:04;;;;;;;72.43;41.07;;;;;;;1.43;80.99;102068.73;1473459;88;21666;-81
2023/02/14 06:28:30;;;;;;;76.00;41.43;;;;;;;1.45;80.94;102066.09;1477259;88;21543;-81
2023/02/14 06:30:56;;;;;;;80.70;42.43;;;;;;;1.44;80.87;102063.95;1479488;88;21813;-80
2023/02/14 06:33:22;;;;;;;87.77;45.70;;;;;;;1.43;80.79;102075.27;1481450;88;22572;-83
2023/02/14 06:35:48;;;;;;;85.87;45.50;;;;;;;1.42;81.12;102068.80;1479336;88;21851;-82
2023/02/14 06:38:15;;;;;;;84.03;46.23;;;;;;;1.45;81.07;102073.92;1461661;88;21569;-79
2023/02/14 06:40:41;;;;;;;92.60;49.27;;;;;;;1.48;81.16;102073.83;1466863;88;22577;-80
2023/02/14 06:43:07;;;;;;;92.43;46.67;;;;;;;1.53;81.24;102074.54;1474808;88;22320;-82
2023/02/14 06:45:33;;;;;;;90.70;51.63;;;;;;;1.54;81.25;102064.48;1475501;88;21589;-81
2023/02/14 06:47:59;;;;;;;87.57;47.93;;;;;;;1.58;81.07;102073.48;1474857;88;21621;-81
2023/02/14 06:50:25;;;;;;;70.10;41.40;;;;;;;1.62;80.77;102072.93;1472228;88;21650;-82
2023/02/14 06:52:52;;;;;;;81.00;42.63;;;;;;;1.61;81.06;102071.20;1473652;88;21576;-81
2023/02/14 06:55:18;;;;;;;84.80;45.27;;;;;;;1.62;80.71;102062.95;1471956;88;21561;-80
2023/02/14 06:57:45;;;;;;;79.93;38.73;;;;;;;1.65;80.73;102065.45;1465741;88;22375;-83
2023/02/14 07:00:13;;;;;;;67.17;37.40;;;;;;;1.66;80.74;102062.78;1471040;88;21837;-81
2023/02/14 07:02:40;;;;;;;62.50;36.30;;;;;;;1.70;80.80;102066.16;1474613;88;21887;-80
2023/02/14 07:05:06;;;;;;;66.23;37.07;;;;;;;1.73;80.96;102066.91;1472427;88;22498;-83
2023/02/14 07:07:34;;;;;;;69.23;35.37;;;;;;;1.76;80.95;102063.34;1464945;88;21621;-81
2023/02/14 07:10:01;;;;;;;57.70;35.13;;;;;;;1.80;80.67;102065.78;1478389;88;21849;-81
2023/02/14 07:12:27;;;;;;;67.33;36.47;;;;;;;1.79;80.47;102057.56;1467443;88;21501;-82
2023/02/14 07:14:53;;;;;;;73.10;34.73;;;;;;;1.78;80.44;102067.62;1478902;88;21750;-82
2023/02/14 07:17:19;;;;;;;67.00;35.80;;;;;;;1.80;80.59;102068.39;1471794;88;21672;-80
2023/02/14 07:19:45;;;;;;;62.27;32.20;;;;;;;1.79;80.56;102068.01;1478433;88;21800;-79
2023/02/14 07:22:12;;;;;;;71.83;37.60;;;;;;;1.78;80.40;102072.84;1479921;88;21837;-80
2023/02/14 07:24:38;;;;;;;66.37;36.10;;;;;;;1.79;80.68;102069.77;1481418;88;21798;-79
2023/02/14 07:27:04;;;;;;;66.07;35.63;;;;;;;1.81;80.71;102065.33;1483252;88;21575;-80
2023/02/14 07:29:31;;;;;;;59.33;34.97;;;;;;;1.84;80.73;102069.14;1479655;88;21786;-79
2023/02/14 07:31:57;;;;;;;63.67;35.63;;;;;;;1.86;80.90;102064.73;1481224;88;22476;-79
2023/02/14 07:34:23;;;;;;;62.13;31.40;;;;;;;1.90;80.49;102062.44;1478812;88;21502;-79
2023/02/14 07:36:50;;;;;;;56.93;30.90;;;;;;;1.92;80.40;102061.06;1478539;88;21747;-80
2023/02/14 07:39:16;;;;;;;58.63;33.10;;;;;;;1.94;80.44;102067.09;1484728;88;21546;-80
2023/02/14 07:41:42;;;;;;;55.63;32.17;;;;;;;1.99;80.50;102069.10;1483627;88;21598;-79
2023/02/14 07:44:09;;;;;;;59.50;33.23;;;;;;;2.04;80.19;102072.38;1485784;88;22566;-80
2023/02/14 07:46:35;;;;;;;58.50;32.53;;;;;;;2.04;79.90;102073.69;1482047;88;21547;-80
2023/02/14 07:49:07;;;;;;;55.50;34.33;;;;;;;2.06;79.87;102067.97;1485083;88;21561;-78
2023/02/14 07:51:34;;;;;;;60.83;34.37;;;;;;;2.07;79.73;102065.75;1469288;88;21413;-78
2023/02/14 07:54:00;;;;;;;63.47;34.93;;;;;;;2.11;79.85;102077.81;1488148;88;21682;-79
2023/02/14 07:56:26;;;;;;;60.33;33.10;;;;;;;2.15;79.98;102074.63;1479766;88;22533;-79
2023/02/14 07:58:52;;;;;;;67.30;35.00;;;;;;;2.18;79.65;102071.45;1480998;88;21866;-80
2023/02/14 08:01:19;;;;;;;72.57;36.20;;;;;;;2.22;79.86;102081.37;1474801;88;21626;-79
2023/02/14 08:03:48;;;;;;;63.57;33.17;;;;;;;2.28;80.00;102081.61;1478752;88;22609;-76
2023/02/14 08:06:20;;;;;;;56.47;30.47;;;;;;;2.36;79.90;102083.05;1482052;88;21667;-79
2023/02/14 08:08:47;;;;;;;59.60;32.23;;;;;;;2.44;79.92;102085.36;1475105;88;21608;-80
2023/02/14 08:13:59;;;;;;;60.37;30.97;;;;;;;2.53;79.12;102072.41;1480155;88;21794;-77
2023/02/14 08:16:25;;;;;;;50.67;30.10;;;;;;;2.60;78.99;102066.08;1483546;88;21655;-77
2023/02/14 08:18:51;;;;;;;58.87;33.90;;;;;;;2.61;78.53;102079.07;1482507;88;22615;-77
2023/02/14 08:21:18;;;;;;;56.53;31.87;;;;;;;2.58;78.50;102076.57;1481609;88;21812;-77
2023/02/14 08:23:44;;;;;;;58.87;34.67;;;;;;;2.68;78.51;102080.56;1477416;88;22293;-76
2023/02/14 08:26:10;;;;;;;59.10;32.33;;;;;;;2.70;78.37;102077.87;1480298;88;21753;-79
2023/02/14 08:28:36;;;;;;;52.03;31.53;;;;;;;2.81;78.82;102080.10;1482022;88;21753;-79
2023/02/14 08:31:03;;;;;;;57.00;31.40;;;;;;;2.81;78.82;102080.10;1477215;88;21721;-78
2023/02/14 08:33:30;;;;;;;53.03;31.07;;;;;;;2.91;78.62;102083.63;1402418;88;21871;-82
2023/02/14 08:35:56;;;;;;;54.40;29.63;;;;;;;3.01;78.46;102081.51;1403807;88;21657;-84
2023/02/14 08:38:23;;;;;;;55.73;31.07;;;;;;;3.05;77.48;102087.04;1404105;88;21702;-85
2023/02/14 08:40:49;;;;;;;48.53;28.07;;;;;;;3.15;76.47;102089.68;1403592;88;21839;-85
2023/02/14 08:43:15;;;;;;;57.90;31.80;;;;;;;3.15;76.47;102089.68;1404438;88;22048;-84
2023/02/14 08:45:42;;;;;;;60.87;31.70;;;;;;;3.22;76.80;102089.44;1369054;91;22049;-86
2023/02/14 08:52:07;;;;;;;46.20;28.33;;;;;;;3.29;76.49;102093.54;1565538;88;21946;-84
2023/02/14 08:54:34;;;;;;;52.37;30.30;;;;;;;3.36;76.11;102100.22;1403625;88;21922;-87
2023/02/14 08:57:02;;;;;;;46.40;27.07;;;;;;;3.38;75.89;102103.18;1403483;88;21804;-85
2023/02/14 08:59:28;;;;;;;50.43;29.40;;;;;;;3.42;76.09;102100.44;1382774;90;21981;-83
2023/02/14 09:01:55;;;;;;;45.80;28.00;;;;;;;3.42;76.09;102100.44;1409756;88;22115;-85
2023/02/14 09:04:21;;;;;;;47.00;28.33;;;;;;;3.54;76.17;102115.22;1501204;88;22203;-83
2023/02/14 09:06:47;;;;;;;47.07;28.77;;;;;;;3.54;76.17;102115.22;1480933;88;22120;-85
2023/02/14 09:09:16;;;;;;;51.27;28.90;;;;;;;3.62;76.53;102103.11;1480513;88;22706;-85
2023/02/14 09:11:42;;;;;;;46.90;27.30;;;;;;;3.75;76.07;102110.03;1483367;88;22609;-85
2023/02/14 09:14:08;;;;;;;50.77;28.57;;;;;;;3.77;75.35;102099.01;1476766;88;22292;-84
2023/02/14 09:16:35;;;;;;;50.07;29.73;;;;;;;3.89;75.37;102107.70;1482313;88;22084;-82
2023/02/14 09:19:01;;;;;;;48.10;28.07;;;;;;;3.93;74.79;102104.02;1477469;88;22235;-84
2023/02/14 09:21:27;;;;;;;59.73;29.47;;;;;;;3.87;73.44;102114.76;1480239;88;23030;-85
2023/02/14 09:23:54;;;;;;;49.53;29.03;;;;;;;3.89;74.04;102118.17;1480693;88;22310;-85
2023/02/14 09:26:21;;;;;;;52.00;30.47;;;;;;;3.86;73.77;102120.92;1478802;88;23274;-86
2023/02/14 09:28:47;;;;;;;52.13;32.40;;;;;;;3.89;74.04;102115.55;1479463;88;22108;-85
2023/02/14 09:31:18;;;;;;;45.53;27.53;;;;;;;3.95;74.10;102113.98;1480474;88;22099;-83
2023/02/14 09:33:46;;;;;;;53.90;28.98;;;;;;;4.00;74.01;102114.66;1480278;88;22024;-85
2023/02/14 09:38:57;;;;;;;51.60;30.60;;;;;;;4.08;73.74;102118.23;1476416;88;22369;-83
2023/02/14 09:41:31;;;;;;;42.90;26.97;;;;;;;4.12;73.89;102118.98;1478705;88;22129;-86
2023/02/14 09:44:30;;;;;;;47.97;26.87;;;;;;;4.18;73.82;102117.41;1480034;88;23081;-85
2023/02/14 09:47:02;;;;;;;54.10;29.33;;;;;;;4.23;73.49;102114.12;1476992;88;22135;-82
2023/02/14 09:49:36;;;;;;;69.40;29.53;;;;;;;4.30;73.49;102107.71;1478203;88;22225;-83
2023/02/14 09:52:05;;;;;;;49.30;28.53;;;;;;;4.39;72.88;102109.92;1460989;88;22192;-84
2023/02/14 09:54:34;;;;;;;54.27;30.13;;;;;;;4.46;72.84;102107.87;1476675;88;22017;-84
2023/02/14 09:57:18;;;;;;;45.67;26.90;;;;;;;4.52;72.75;102104.55;1480917;88;23098;-85
2023/02/14 10:00:17;;;;;;;48.33;27.53;;;;;;;4.58;72.59;102106.52;1475169;88;22186;-84
2023/02/14 10:03:18;;;;;;;47.23;27.80;;;;;;;4.65;71.37;102107.93;1482587;88;21486;-85
2023/02/14 10:06:05;;;;;;;55.95;28.38;;;;;;;4.65;71.37;102107.93;1478578;88;21626;-84
2023/02/14 10:09:08;;;;;;;46.90;26.93;;;;;;;4.70;71.70;102096.78;1479957;88;21646;-82
2023/02/14 10:11:35;;;;;;;52.63;28.03;;;;;;;4.83;72.07;102097.06;1479309;88;21564;-84
2023/02/14 10:14:16;;;;;;;52.50;28.93;;;;;;;4.93;71.64;102096.58;1476607;88;22323;-85
2023/02/14 10:17:03;;;;;;;37.37;23.93;;;;;;;5.03;71.47;102089.59;1484988;88;21413;-82
2023/02/14 10:19:42;;;;;;;37.03;23.43;;;;;;;5.09;69.52;102089.30;1479213;88;21641;-87
2023/02/14 10:22:15;;;;;;;43.77;24.60;;;;;;;5.24;71.37;102088.61;1479315;88;21487;-85
2023/02/14 10:25:02;;;;;;;38.47;23.77;;;;;;;5.38;70.26;102083.55;1480396;88;21368;-85
2023/02/14 10:27:42;;;;;;;41.30;26.57;;;;;;;5.47;69.02;102080.06;1481412;88;21628;-82
2023/02/14 10:30:15;;;;;;;42.08;24.52;;;;;;;5.60;69.84;102079.87;1539626;88;21346;-84
2023/02/14 10:33:03;;;;;;;50.27;27.13;;;;;;;5.70;69.36;102075.88;1482613;88;21552;-84
2023/02/14 10:35:52;;;;;;;37.37;24.27;;;;;;;5.82;68.93;102079.67;1482748;88;21406;-83
2023/02/14 10:38:46;;;;;;;41.87;24.27;;;;;;;5.81;67.11;102080.14;1478628;88;21398;-84
2023/02/14 10:41:33;;;;;;;97.67;55.00;;;;;;;5.88;67.29;102072.79;1454348;88;21471;-83
2023/02/14 10:44:35;;;;;;;52.47;32.63;;;;;;;6.05;68.53;102071.50;1476344;88;21412;-86
2023/02/14 10:47:21;;;;;;;47.53;26.17;;;;;;;6.19;68.22;102069.48;1477472;88;21434;-86
2023/02/14 10:50:11;;;;;;;37.80;23.00;;;;;;;6.35;67.09;102066.89;1476466;88;21545;-84
2023/02/14 10:53:04;;;;;;;37.67;22.33;;;;;;;6.55;64.72;102056.64;1481574;88;21487;-87
2023/02/14 10:55:53;;;;;;;38.27;24.43;;;;;;;6.77;66.77;102058.98;1434911;90;22024;-86
2023/02/14 10:58:23;;;;;;;37.93;22.60;;;;;;;6.94;65.96;102056.27;1470301;88;21530;-84
2023/02/14 11:01:16;;;;;;;40.23;25.40;;;;;;;7.23;65.49;102052.48;1480327;88;21361;-83
2023/02/14 11:04:02;;;;;;;34.53;22.70;;;;;;;7.41;63.97;102058.49;1480902;88;21450;-81
2023/02/14 11:06:24;;;;;;;36.47;23.17;;;;;;;7.61;63.82;102054.72;1482702;88;22315;-84
2023/02/14 11:08:51;;;;;;;38.63;21.03;;;;;;;7.78;63.48;102050.63;1454597;88;21663;-85
2023/02/14 11:11:51;;;;;;;33.17;21.03;;;;;;;7.75;60.17;102049.97;1477040;88;21434;-85
2023/02/14 11:14:29;;;;;;;33.67;21.63;;;;;;;7.69;61.27;102041.48;1401745;88;21472;-84
2023/02/14 11:21:35;;;;;;;36.30;23.05;;;;;;;7.64;61.73;102034.30;1565720;88;21163;-84
2023/02/14 11:24:03;;;;;;;76.87;42.73;;;;;;;7.74;61.42;102029.80;1547486;88;21318;-83
2023/02/14 11:26:33;;;;;;;59.27;33.40;;;;;;;7.92;62.03;102018.19;1408972;89;21348;-84
2023/02/14 11:29:03;;;;;;;56.73;33.27;;;;;;;7.99;61.02;102022.14;1400067;88;21200;-86
2023/02/14 11:31:34;;;;;;;31.95;20.00;;;;;;;8.07;61.21;102018.58;1564847;88;21295;-81
2023/02/14 11:34:02;;;;;;;;;;;;;;;7.98;58.06;102012.55;1568168;88;21368;-83
2023/02/14 11:36:29;;;;;;;35.60;20.37;;;;;;;7.84;57.31;102010.73;1565618;88;20328;-84
2023/02/14 11:39:19;;;;;;;106.90;58.27;;;;;;;8.03;59.81;102007.85;1408300;88;22198;-82
2023/02/14 11:41:54;;;;;;;67.53;39.57;;;;;;;8.18;59.61;102008.70;1564403;88;21312;-87
2023/02/14 11:44:25;;;;;;;54.87;32.70;;;;;;;8.28;58.64;101999.75;1563630;88;21458;-85
2023/02/14 11:46:54;;;;;;;91.35;50.88;;;;;;;8.42;59.97;102001.09;1441674;88;21354;-81
2023/02/14 11:49:34;;;;;;;56.30;34.77;;;;;;;8.49;59.21;101998.47;1462572;88;22300;-83
2023/02/14 11:52:10;;;;;;;37.07;20.93;;;;;;;8.78;59.44;101986.55;1444072;88;21405;-84
2023/02/14 11:54:41;;;;;;;24.30;17.27;;;;;;;9.34;60.13;101978.03;1480839;88;21706;-84
2023/02/14 11:57:30;;;;;;;23.13;15.73;;;;;;;9.94;58.11;101976.16;1401444;88;21244;-82
2023/02/14 11:59:58;;;;;;;25.77;17.80;;;;;;;10.51;57.74;101968.73;1565732;88;21185;-82
2023/02/14 12:02:31;;;;;;;17.93;11.97;;;;;;;11.02;55.05;101965.91;1401366;88;21393;-82
2023/02/14 12:05:20;;;;;;;16.40;11.70;;;;;;;10.96;48.26;101968.98;1566137;88;21259;-84
2023/02/14 12:07:50;;;;;;;25.00;12.90;;;;;;;10.89;48.16;101959.81;1559272;88;21252;-83